sensor_id;sensor_type;location;lat;lon;timestamp;P1;durP1;ratioP1;P2;durP2;ratioP2
79025;SDS011;71097;44.760;37.726;2023-07-20T00:00:34;20.55;;;8.23;;
79025;SDS011;71097;44.760;37.726;2023-07-20T00:01:38;13.80;;;7.68;;
79025;SDS011;71097;44.760;37.726;2023-07-20T00:03:58;17.58;;;7.97;;
79025;SDS011;71097;44.760;37.726;2023-07-20T00:05:00;11.00;;;7.32;;
79025;SDS011;71097;44.760;37.726;2023-07-20T00:06:05;18.42;;;8.85;;
79025;SDS011;71097;44.760;37.726;2023-07-20T00:07:07;12.63;;;7.57;;
79025;SDS011;71097;44.760;37.726;2023-07-20T00:08:09;13.80;;;7.88;;
79025;SDS011;71097;44.760;37.726;2023-07-20T00:09:13;14.07;;;8.07;;
79025;SDS011;71097;44.760;37.726;2023-07-20T00:10:14;13.88;;;8.80;;
79025;SDS011;71097;44.760;37.726;2023-07-20T00:11:19;16.02;;;8.88;;
79025;SDS011;71097;44.760;37.726;2023-07-20T00:12:21;14.75;;;8.77;;
79025;SDS011;71097;44.760;37.726;2023-07-20T00:13:25;13.38;;;8.07;;
79025;SDS011;71097;44.760;37.726;2023-07-20T00:14:30;18.85;;;9.23;;
79025;SDS011;71097;44.760;37.726;2023-07-20T00:15:38;18.10;;;9.35;;
79025;SDS011;71097;44.760;37.726;2023-07-20T00:16:44;15.43;;;8.85;;
79025;SDS011;71097;44.760;37.726;2023-07-20T00:18:01;14.63;;;8.95;;
79025;SDS011;71097;44.760;37.726;2023-07-20T00:19:07;12.80;;;8.35;;
79025;SDS011;71097;44.760;37.726;2023-07-20T00:20:13;14.20;;;8.40;;
79025;SDS011;71097;44.760;37.726;2023-07-20T00:21:15;14.57;;;8.77;;
79025;SDS011;71097;44.760;37.726;2023-07-20T00:22:20;14.15;;;8.93;;
79025;SDS011;71097;44.760;37.726;2023-07-20T00:23:27;20.27;;;9.20;;
79025;SDS011;71097;44.760;37.726;2023-07-20T00:24:32;16.35;;;8.93;;
79025;SDS011;71097;44.760;37.726;2023-07-20T00:25:36;16.35;;;8.00;;
79025;SDS011;71097;44.760;37.726;2023-07-20T00:26:41;13.35;;;8.50;;
79025;SDS011;71097;44.760;37.726;2023-07-20T00:27:43;12.52;;;8.77;;
79025;SDS011;71097;44.760;37.726;2023-07-20T00:28:46;11.68;;;7.82;;
79025;SDS011;71097;44.760;37.726;2023-07-20T00:29:47;12.73;;;8.80;;
79025;SDS011;71097;44.760;37.726;2023-07-20T00:30:55;11.93;;;8.60;;
79025;SDS011;71097;44.760;37.726;2023-07-20T00:31:59;13.38;;;8.50;;
79025;SDS011;71097;44.760;37.726;2023-07-20T00:33:03;12.85;;;8.18;;
79025;SDS011;71097;44.760;37.726;2023-07-20T00:34:05;11.82;;;7.88;;
79025;SDS011;71097;44.760;37.726;2023-07-20T00:35:08;15.85;;;8.93;;
79025;SDS011;71097;44.760;37.726;2023-07-20T00:36:10;13.35;;;8.15;;
79025;SDS011;71097;44.760;37.726;2023-07-20T00:37:12;15.65;;;8.13;;
79025;SDS011;71097;44.760;37.726;2023-07-20T00:38:14;15.23;;;8.00;;
79025;SDS011;71097;44.760;37.726;2023-07-20T00:39:16;18.13;;;8.38;;
79025;SDS011;71097;44.760;37.726;2023-07-20T00:40:20;12.23;;;7.90;;
79025;SDS011;71097;44.760;37.726;2023-07-20T00:41:22;14.57;;;8.63;;
79025;SDS011;71097;44.760;37.726;2023-07-20T00:42:24;11.65;;;7.90;;
79025;SDS011;71097;44.760;37.726;2023-07-20T00:43:26;12.95;;;8.80;;
79025;SDS011;71097;44.760;37.726;2023-07-20T00:44:28;15.98;;;8.60;;
79025;SDS011;71097;44.760;37.726;2023-07-20T00:45:30;12.38;;;7.22;;
79025;SDS011;71097;44.760;37.726;2023-07-20T00:46:33;13.45;;;8.05;;
79025;SDS011;71097;44.760;37.726;2023-07-20T00:47:36;13.57;;;8.55;;
79025;SDS011;71097;44.760;37.726;2023-07-20T00:48:40;14.57;;;7.60;;
79025;SDS011;71097;44.760;37.726;2023-07-20T00:49:44;11.75;;;8.57;;
79025;SDS011;71097;44.760;37.726;2023-07-20T00:50:48;11.88;;;7.10;;
79025;SDS011;71097;44.760;37.726;2023-07-20T00:51:53;11.73;;;7.75;;
79025;SDS011;71097;44.760;37.726;2023-07-20T00:52:55;9.07;;;7.13;;
79025;SDS011;71097;44.760;37.726;2023-07-20T00:53:58;9.82;;;7.63;;
79025;SDS011;71097;44.760;37.726;2023-07-20T00:55:02;11.45;;;8.00;;
79025;SDS011;71097;44.760;37.726;2023-07-20T00:56:05;14.68;;;8.13;;
79025;SDS011;71097;44.760;37.726;2023-07-20T00:57:12;11.82;;;8.75;;
79025;SDS011;71097;44.760;37.726;2023-07-20T00:58:32;13.95;;;8.20;;
79025;SDS011;71097;44.760;37.726;2023-07-20T00:59:40;12.85;;;8.57;;
79025;SDS011;71097;44.760;37.726;2023-07-20T01:00:46;14.52;;;9.93;;
79025;SDS011;71097;44.760;37.726;2023-07-20T01:01:50;14.30;;;9.15;;
79025;SDS011;71097;44.760;37.726;2023-07-20T01:02:55;13.60;;;9.35;;
79025;SDS011;71097;44.760;37.726;2023-07-20T01:03:59;17.02;;;9.07;;
79025;SDS011;71097;44.760;37.726;2023-07-20T01:05:07;15.23;;;9.23;;
79025;SDS011;71097;44.760;37.726;2023-07-20T01:06:14;14.18;;;9.02;;
79025;SDS011;71097;44.760;37.726;2023-07-20T01:07:35;23.90;;;8.57;;
79025;SDS011;71097;44.760;37.726;2023-07-20T01:08:51;21.02;;;8.68;;
79025;SDS011;71097;44.760;37.726;2023-07-20T01:10:10;21.00;;;9.57;;
79025;SDS011;71097;44.760;37.726;2023-07-20T01:11:46;24.10;;;8.77;;
79025;SDS011;71097;44.760;37.726;2023-07-20T01:12:58;21.73;;;7.55;;
79025;SDS011;71097;44.760;37.726;2023-07-20T01:14:05;25.25;;;8.57;;
79025;SDS011;71097;44.760;37.726;2023-07-20T01:15:08;22.52;;;8.57;;
79025;SDS011;71097;44.760;37.726;2023-07-20T01:16:12;28.65;;;9.30;;
79025;SDS011;71097;44.760;37.726;2023-07-20T01:17:17;20.95;;;8.18;;
79025;SDS011;71097;44.760;37.726;2023-07-20T01:18:18;17.05;;;8.30;;
79025;SDS011;71097;44.760;37.726;2023-07-20T01:19:23;18.85;;;8.80;;
79025;SDS011;71097;44.760;37.726;2023-07-20T01:20:25;22.90;;;8.70;;
79025;SDS011;71097;44.760;37.726;2023-07-20T01:21:41;21.83;;;8.40;;
79025;SDS011;71097;44.760;37.726;2023-07-20T01:26:11;17.65;;;10.00;;
79025;SDS011;71097;44.760;37.726;2023-07-20T01:31:55;20.15;;;8.93;;
79025;SDS011;71097;44.760;37.726;2023-07-20T01:34:02;20.45;;;9.18;;
79025;SDS011;71097;44.760;37.726;2023-07-20T01:35:08;15.65;;;8.85;;
79025;SDS011;71097;44.760;37.726;2023-07-20T01:36:16;17.40;;;10.32;;
79025;SDS011;71097;44.760;37.726;2023-07-20T01:37:20;16.45;;;8.43;;
79025;SDS011;71097;44.760;37.726;2023-07-20T01:38:28;11.95;;;8.15;;
79025;SDS011;71097;44.760;37.726;2023-07-20T01:39:30;16.63;;;9.55;;
79025;SDS011;71097;44.760;37.726;2023-07-20T01:40:37;19.58;;;9.70;;
79025;SDS011;71097;44.760;37.726;2023-07-20T01:41:43;21.70;;;9.05;;
79025;SDS011;71097;44.760;37.726;2023-07-20T01:42:47;17.02;;;9.75;;
79025;SDS011;71097;44.760;37.726;2023-07-20T01:43:49;23.33;;;8.55;;
79025;SDS011;71097;44.760;37.726;2023-07-20T01:44:51;13.80;;;8.82;;
79025;SDS011;71097;44.760;37.726;2023-07-20T01:45:58;14.55;;;8.73;;
79025;SDS011;71097;44.760;37.726;2023-07-20T01:48:03;16.63;;;8.15;;
79025;SDS011;71097;44.760;37.726;2023-07-20T01:49:08;13.98;;;7.65;;
79025;SDS011;71097;44.760;37.726;2023-07-20T01:50:10;14.65;;;8.40;;
79025;SDS011;71097;44.760;37.726;2023-07-20T01:51:12;11.07;;;8.27;;
79025;SDS011;71097;44.760;37.726;2023-07-20T01:52:14;12.90;;;8.35;;
79025;SDS011;71097;44.760;37.726;2023-07-20T01:53:20;16.10;;;9.43;;
79025;SDS011;71097;44.760;37.726;2023-07-20T01:55:24;12.60;;;8.25;;
79025;SDS011;71097;44.760;37.726;2023-07-20T01:56:29;13.48;;;8.52;;
79025;SDS011;71097;44.760;37.726;2023-07-20T01:57:42;12.40;;;8.02;;
79025;SDS011;71097;44.760;37.726;2023-07-20T01:58:44;13.02;;;8.25;;
79025;SDS011;71097;44.760;37.726;2023-07-20T01:59:48;20.77;;;9.73;;
79025;SDS011;71097;44.760;37.726;2023-07-20T02:00:50;15.23;;;9.95;;
79025;SDS011;71097;44.760;37.726;2023-07-20T02:01:56;16.73;;;9.00;;
79025;SDS011;71097;44.760;37.726;2023-07-20T02:02:58;17.15;;;9.70;;
79025;SDS011;71097;44.760;37.726;2023-07-20T02:04:00;13.85;;;8.60;;
79025;SDS011;71097;44.760;37.726;2023-07-20T02:05:12;13.98;;;8.88;;
79025;SDS011;71097;44.760;37.726;2023-07-20T02:06:17;13.73;;;8.90;;
79025;SDS011;71097;44.760;37.726;2023-07-20T02:07:19;13.40;;;8.38;;
79025;SDS011;71097;44.760;37.726;2023-07-20T02:08:23;11.68;;;8.45;;
79025;SDS011;71097;44.760;37.726;2023-07-20T02:09:28;13.85;;;8.60;;
79025;SDS011;71097;44.760;37.726;2023-07-20T02:10:29;15.20;;;8.60;;
79025;SDS011;71097;44.760;37.726;2023-07-20T02:11:35;15.55;;;8.40;;
79025;SDS011;71097;44.760;37.726;2023-07-20T02:12:36;12.68;;;7.35;;
79025;SDS011;71097;44.760;37.726;2023-07-20T02:13:38;18.58;;;7.97;;
79025;SDS011;71097;44.760;37.726;2023-07-20T02:14:42;19.38;;;8.93;;
79025;SDS011;71097;44.760;37.726;2023-07-20T02:15:44;13.10;;;8.77;;
79025;SDS011;71097;44.760;37.726;2023-07-20T02:16:48;14.88;;;8.57;;
79025;SDS011;71097;44.760;37.726;2023-07-20T02:17:55;15.45;;;9.10;;
79025;SDS011;71097;44.760;37.726;2023-07-20T02:18:56;16.27;;;8.90;;
79025;SDS011;71097;44.760;37.726;2023-07-20T02:19:59;19.88;;;9.98;;
79025;SDS011;71097;44.760;37.726;2023-07-20T02:21:01;14.05;;;9.15;;
79025;SDS011;71097;44.760;37.726;2023-07-20T02:22:03;15.07;;;8.60;;
79025;SDS011;71097;44.760;37.726;2023-07-20T02:23:08;17.92;;;9.95;;
79025;SDS011;71097;44.760;37.726;2023-07-20T02:24:11;17.10;;;8.75;;
79025;SDS011;71097;44.760;37.726;2023-07-20T02:25:13;15.73;;;9.68;;
79025;SDS011;71097;44.760;37.726;2023-07-20T02:26:16;23.30;;;10.20;;
79025;SDS011;71097;44.760;37.726;2023-07-20T02:27:18;16.27;;;9.30;;
79025;SDS011;71097;44.760;37.726;2023-07-20T02:28:19;15.35;;;9.88;;
79025;SDS011;71097;44.760;37.726;2023-07-20T02:29:21;22.30;;;9.55;;
79025;SDS011;71097;44.760;37.726;2023-07-20T02:30:26;20.50;;;9.70;;
79025;SDS011;71097;44.760;37.726;2023-07-20T02:31:30;15.40;;;9.30;;
79025;SDS011;71097;44.760;37.726;2023-07-20T02:32:33;21.88;;;10.15;;
79025;SDS011;71097;44.760;37.726;2023-07-20T02:33:35;18.90;;;9.23;;
79025;SDS011;71097;44.760;37.726;2023-07-20T02:34:37;15.27;;;8.95;;
79025;SDS011;71097;44.760;37.726;2023-07-20T02:35:40;20.77;;;9.00;;
79025;SDS011;71097;44.760;37.726;2023-07-20T02:36:45;24.35;;;8.70;;
79025;SDS011;71097;44.760;37.726;2023-07-20T02:37:47;17.95;;;9.85;;
79025;SDS011;71097;44.760;37.726;2023-07-20T02:38:49;16.45;;;9.13;;
79025;SDS011;71097;44.760;37.726;2023-07-20T02:39:53;18.48;;;10.20;;
79025;SDS011;71097;44.760;37.726;2023-07-20T02:40:55;24.98;;;10.13;;
79025;SDS011;71097;44.760;37.726;2023-07-20T02:41:56;21.83;;;10.32;;
79025;SDS011;71097;44.760;37.726;2023-07-20T02:43:00;15.90;;;8.63;;
79025;SDS011;71097;44.760;37.726;2023-07-20T02:44:02;17.48;;;8.75;;
79025;SDS011;71097;44.760;37.726;2023-07-20T02:45:08;16.13;;;8.15;;
79025;SDS011;71097;44.760;37.726;2023-07-20T02:46:10;20.30;;;8.93;;
79025;SDS011;71097;44.760;37.726;2023-07-20T02:47:13;24.60;;;10.23;;
79025;SDS011;71097;44.760;37.726;2023-07-20T02:48:14;28.48;;;10.15;;
79025;SDS011;71097;44.760;37.726;2023-07-20T02:49:16;19.08;;;9.68;;
79025;SDS011;71097;44.760;37.726;2023-07-20T02:50:18;21.10;;;10.35;;
79025;SDS011;71097;44.760;37.726;2023-07-20T02:51:22;24.25;;;9.02;;
79025;SDS011;71097;44.760;37.726;2023-07-20T02:52:24;19.75;;;9.95;;
79025;SDS011;71097;44.760;37.726;2023-07-20T02:53:30;20.85;;;9.48;;
79025;SDS011;71097;44.760;37.726;2023-07-20T02:54:32;18.35;;;9.65;;
79025;SDS011;71097;44.760;37.726;2023-07-20T02:55:54;20.75;;;10.07;;
79025;SDS011;71097;44.760;37.726;2023-07-20T02:56:56;18.05;;;9.68;;
79025;SDS011;71097;44.760;37.726;2023-07-20T02:57:58;23.77;;;11.63;;
79025;SDS011;71097;44.760;37.726;2023-07-20T02:59:02;22.42;;;10.65;;
79025;SDS011;71097;44.760;37.726;2023-07-20T03:00:07;21.30;;;11.18;;
79025;SDS011;71097;44.760;37.726;2023-07-20T03:01:09;32.78;;;12.10;;
79025;SDS011;71097;44.760;37.726;2023-07-20T03:02:11;25.23;;;10.50;;
79025;SDS011;71097;44.760;37.726;2023-07-20T03:03:19;31.15;;;12.05;;
79025;SDS011;71097;44.760;37.726;2023-07-20T03:04:25;28.98;;;11.85;;
79025;SDS011;71097;44.760;37.726;2023-07-20T03:05:27;29.13;;;11.77;;
79025;SDS011;71097;44.760;37.726;2023-07-20T03:06:29;29.73;;;12.20;;
79025;SDS011;71097;44.760;37.726;2023-07-20T03:07:31;19.70;;;10.07;;
79025;SDS011;71097;44.760;37.726;2023-07-20T03:08:33;28.63;;;10.55;;
79025;SDS011;71097;44.760;37.726;2023-07-20T03:09:36;30.92;;;9.80;;
79025;SDS011;71097;44.760;37.726;2023-07-20T03:10:42;31.63;;;9.75;;
79025;SDS011;71097;44.760;37.726;2023-07-20T03:11:43;26.60;;;9.63;;
79025;SDS011;71097;44.760;37.726;2023-07-20T03:12:46;30.30;;;10.32;;
79025;SDS011;71097;44.760;37.726;2023-07-20T03:13:48;29.35;;;9.15;;
79025;SDS011;71097;44.760;37.726;2023-07-20T03:14:52;30.38;;;10.00;;
79025;SDS011;71097;44.760;37.726;2023-07-20T03:15:59;21.17;;;8.90;;
79025;SDS011;71097;44.760;37.726;2023-07-20T03:17:43;42.22;;;9.82;;
79025;SDS011;71097;44.760;37.726;2023-07-20T03:18:50;30.23;;;9.73;;
79025;SDS011;71097;44.760;37.726;2023-07-20T03:19:52;30.50;;;11.05;;
79025;SDS011;71097;44.760;37.726;2023-07-20T03:20:54;40.67;;;11.00;;
79025;SDS011;71097;44.760;37.726;2023-07-20T03:21:55;33.58;;;9.90;;
79025;SDS011;71097;44.760;37.726;2023-07-20T03:22:57;31.15;;;10.90;;
79025;SDS011;71097;44.760;37.726;2023-07-20T03:23:59;36.65;;;10.02;;
79025;SDS011;71097;44.760;37.726;2023-07-20T03:25:01;38.05;;;10.15;;
79025;SDS011;71097;44.760;37.726;2023-07-20T03:26:03;38.63;;;10.35;;
79025;SDS011;71097;44.760;37.726;2023-07-20T03:27:06;40.25;;;10.00;;
79025;SDS011;71097;44.760;37.726;2023-07-20T03:28:07;41.50;;;10.13;;
79025;SDS011;71097;44.760;37.726;2023-07-20T03:29:13;44.83;;;11.02;;
79025;SDS011;71097;44.760;37.726;2023-07-20T03:30:20;42.80;;;10.73;;
79025;SDS011;71097;44.760;37.726;2023-07-20T03:31:23;48.63;;;11.15;;
79025;SDS011;71097;44.760;37.726;2023-07-20T03:32:27;35.97;;;10.20;;
79025;SDS011;71097;44.760;37.726;2023-07-20T03:33:29;51.95;;;12.13;;
79025;SDS011;71097;44.760;37.726;2023-07-20T03:34:35;52.50;;;10.98;;
79025;SDS011;71097;44.760;37.726;2023-07-20T03:35:42;59.92;;;11.90;;
79025;SDS011;71097;44.760;37.726;2023-07-20T03:36:47;57.20;;;12.13;;
79025;SDS011;71097;44.760;37.726;2023-07-20T03:37:49;61.47;;;13.88;;
79025;SDS011;71097;44.760;37.726;2023-07-20T03:39:11;45.13;;;10.52;;
79025;SDS011;71097;44.760;37.726;2023-07-20T03:40:26;49.45;;;12.18;;
79025;SDS011;71097;44.760;37.726;2023-07-20T03:42:22;46.55;;;11.18;;
79025;SDS011;71097;44.760;37.726;2023-07-20T03:43:36;57.85;;;10.70;;
79025;SDS011;71097;44.760;37.726;2023-07-20T03:44:46;76.18;;;13.90;;
79025;SDS011;71097;44.760;37.726;2023-07-20T03:45:56;76.22;;;13.55;;
79025;SDS011;71097;44.760;37.726;2023-07-20T03:47:02;80.97;;;15.15;;
79025;SDS011;71097;44.760;37.726;2023-07-20T03:48:36;74.85;;;15.88;;
79025;SDS011;71097;44.760;37.726;2023-07-20T03:49:41;66.07;;;13.85;;
79025;SDS011;71097;44.760;37.726;2023-07-20T03:50:46;42.85;;;10.88;;
79025;SDS011;71097;44.760;37.726;2023-07-20T03:51:53;38.97;;;11.27;;
79025;SDS011;71097;44.760;37.726;2023-07-20T03:53:02;33.80;;;10.25;;
79025;SDS011;71097;44.760;37.726;2023-07-20T03:55:38;29.92;;;10.45;;
79025;SDS011;71097;44.760;37.726;2023-07-20T03:57:10;25.02;;;9.80;;
79025;SDS011;71097;44.760;37.726;2023-07-20T04:01:11;28.63;;;10.32;;
79025;SDS011;71097;44.760;37.726;2023-07-20T04:02:38;29.77;;;10.65;;
79025;SDS011;71097;44.760;37.726;2023-07-20T04:04:16;36.33;;;10.70;;
79025;SDS011;71097;44.760;37.726;2023-07-20T04:05:46;30.05;;;10.95;;
79025;SDS011;71097;44.760;37.726;2023-07-20T04:07:16;41.05;;;11.05;;
79025;SDS011;71097;44.760;37.726;2023-07-20T04:08:36;42.03;;;10.68;;
79025;SDS011;71097;44.760;37.726;2023-07-20T04:10:14;33.63;;;9.75;;
79025;SDS011;71097;44.760;37.726;2023-07-20T04:23:58;26.55;;;7.78;;
79025;SDS011;71097;44.760;37.726;2023-07-20T04:31:18;18.60;;;6.50;;
79025;SDS011;71097;44.760;37.726;2023-07-20T04:32:44;15.77;;;7.68;;
79025;SDS011;71097;44.760;37.726;2023-07-20T04:37:56;13.30;;;6.20;;
79025;SDS011;71097;44.760;37.726;2023-07-20T04:43:29;11.55;;;6.03;;
79025;SDS011;71097;44.760;37.726;2023-07-20T04:44:47;11.38;;;5.70;;
79025;SDS011;71097;44.760;37.726;2023-07-20T04:49:52;18.30;;;11.20;;
79025;SDS011;71097;44.760;37.726;2023-07-20T04:51:03;12.55;;;6.30;;
79025;SDS011;71097;44.760;37.726;2023-07-20T04:54:32;9.70;;;6.22;;
79025;SDS011;71097;44.760;37.726;2023-07-20T04:55:50;14.07;;;8.20;;
79025;SDS011;71097;44.760;37.726;2023-07-20T04:56:53;17.08;;;6.22;;
79025;SDS011;71097;44.760;37.726;2023-07-20T04:57:56;9.90;;;4.72;;
79025;SDS011;71097;44.760;37.726;2023-07-20T04:58:59;10.43;;;5.57;;
79025;SDS011;71097;44.760;37.726;2023-07-20T05:00:08;11.45;;;5.65;;
79025;SDS011;71097;44.760;37.726;2023-07-20T05:01:32;13.23;;;5.72;;
79025;SDS011;71097;44.760;37.726;2023-07-20T05:02:59;17.17;;;6.50;;
79025;SDS011;71097;44.760;37.726;2023-07-20T05:04:08;9.27;;;5.75;;
79025;SDS011;71097;44.760;37.726;2023-07-20T05:05:41;8.52;;;5.25;;
79025;SDS011;71097;44.760;37.726;2023-07-20T05:06:50;8.60;;;4.88;;
79025;SDS011;71097;44.760;37.726;2023-07-20T05:07:58;8.07;;;4.72;;
79025;SDS011;71097;44.760;37.726;2023-07-20T05:09:03;7.65;;;5.15;;
79025;SDS011;71097;44.760;37.726;2023-07-20T05:10:22;6.88;;;4.88;;
79025;SDS011;71097;44.760;37.726;2023-07-20T05:11:34;8.32;;;5.20;;
79025;SDS011;71097;44.760;37.726;2023-07-20T05:12:42;7.30;;;4.63;;
79025;SDS011;71097;44.760;37.726;2023-07-20T05:13:46;6.22;;;4.55;;
79025;SDS011;71097;44.760;37.726;2023-07-20T05:14:52;8.15;;;4.55;;
79025;SDS011;71097;44.760;37.726;2023-07-20T05:16:15;9.10;;;4.88;;
79025;SDS011;71097;44.760;37.726;2023-07-20T05:17:22;8.10;;;5.40;;
79025;SDS011;71097;44.760;37.726;2023-07-20T05:18:35;8.07;;;4.13;;
79025;SDS011;71097;44.760;37.726;2023-07-20T05:19:47;7.47;;;4.60;;
79025;SDS011;71097;44.760;37.726;2023-07-20T05:21:12;8.80;;;5.10;;
79025;SDS011;71097;44.760;37.726;2023-07-20T05:22:17;8.90;;;4.97;;
79025;SDS011;71097;44.760;37.726;2023-07-20T05:23:26;8.18;;;5.90;;
79025;SDS011;71097;44.760;37.726;2023-07-20T05:24:41;7.60;;;5.75;;
79025;SDS011;71097;44.760;37.726;2023-07-20T05:26:02;7.85;;;5.32;;
79025;SDS011;71097;44.760;37.726;2023-07-20T05:27:25;9.20;;;5.15;;
79025;SDS011;71097;44.760;37.726;2023-07-20T05:28:36;6.65;;;4.78;;
79025;SDS011;71097;44.760;37.726;2023-07-20T05:29:52;6.95;;;5.10;;
79025;SDS011;71097;44.760;37.726;2023-07-20T05:30:58;8.02;;;5.70;;
79025;SDS011;71097;44.760;37.726;2023-07-20T05:32:04;8.80;;;4.70;;
79025;SDS011;71097;44.760;37.726;2023-07-20T05:34:50;7.10;;;4.72;;
79025;SDS011;71097;44.760;37.726;2023-07-20T05:36:11;7.47;;;6.03;;
79025;SDS011;71097;44.760;37.726;2023-07-20T05:37:21;7.32;;;4.88;;
79025;SDS011;71097;44.760;37.726;2023-07-20T05:38:44;8.68;;;4.72;;
79025;SDS011;71097;44.760;37.726;2023-07-20T05:40:03;8.02;;;5.65;;
79025;SDS011;71097;44.760;37.726;2023-07-20T05:42:11;8.15;;;5.90;;
79025;SDS011;71097;44.760;37.726;2023-07-20T05:43:22;6.90;;;5.03;;
79025;SDS011;71097;44.760;37.726;2023-07-20T05:44:39;7.30;;;4.88;;
79025;SDS011;71097;44.760;37.726;2023-07-20T05:45:44;8.25;;;5.15;;
79025;SDS011;71097;44.760;37.726;2023-07-20T05:47:07;10.30;;;5.93;;
79025;SDS011;71097;44.760;37.726;2023-07-20T05:48:14;8.82;;;5.20;;
79025;SDS011;71097;44.760;37.726;2023-07-20T05:49:20;7.13;;;4.90;;
79025;SDS011;71097;44.760;37.726;2023-07-20T05:50:22;6.55;;;5.07;;
79025;SDS011;71097;44.760;37.726;2023-07-20T05:51:24;7.65;;;5.03;;
79025;SDS011;71097;44.760;37.726;2023-07-20T05:52:26;10.35;;;5.30;;
79025;SDS011;71097;44.760;37.726;2023-07-20T05:53:31;6.78;;;5.00;;
79025;SDS011;71097;44.760;37.726;2023-07-20T05:54:35;10.77;;;5.20;;
79025;SDS011;71097;44.760;37.726;2023-07-20T05:55:37;8.75;;;5.00;;
79025;SDS011;71097;44.760;37.726;2023-07-20T05:56:40;9.68;;;5.28;;
79025;SDS011;71097;44.760;37.726;2023-07-20T05:57:51;8.40;;;5.00;;
79025;SDS011;71097;44.760;37.726;2023-07-20T05:59:11;8.32;;;5.18;;
79025;SDS011;71097;44.760;37.726;2023-07-20T06:00:18;9.18;;;4.95;;
79025;SDS011;71097;44.760;37.726;2023-07-20T06:01:37;8.30;;;4.40;;
79025;SDS011;71097;44.760;37.726;2023-07-20T06:02:39;7.13;;;4.60;;
79025;SDS011;71097;44.760;37.726;2023-07-20T06:04:06;8.13;;;4.35;;
79025;SDS011;71097;44.760;37.726;2023-07-20T06:05:39;7.63;;;4.60;;
79025;SDS011;71097;44.760;37.726;2023-07-20T06:07:02;11.20;;;5.18;;
79025;SDS011;71097;44.760;37.726;2023-07-20T06:08:38;7.18;;;4.90;;
79025;SDS011;71097;44.760;37.726;2023-07-20T06:10:05;7.65;;;5.15;;
79025;SDS011;71097;44.760;37.726;2023-07-20T06:11:58;8.75;;;5.10;;
79025;SDS011;71097;44.760;37.726;2023-07-20T06:13:09;8.00;;;4.20;;
79025;SDS011;71097;44.760;37.726;2023-07-20T06:14:37;7.22;;;5.07;;
79025;SDS011;71097;44.760;37.726;2023-07-20T06:15:56;7.00;;;4.45;;
79025;SDS011;71097;44.760;37.726;2023-07-20T06:17:22;8.18;;;4.68;;
79025;SDS011;71097;44.760;37.726;2023-07-20T06:18:44;8.07;;;4.20;;
79025;SDS011;71097;44.760;37.726;2023-07-20T06:20:15;10.55;;;4.68;;
79025;SDS011;71097;44.760;37.726;2023-07-20T06:21:35;7.85;;;4.40;;
79025;SDS011;71097;44.760;37.726;2023-07-20T06:23:20;10.13;;;4.30;;
79025;SDS011;71097;44.760;37.726;2023-07-20T06:24:31;9.20;;;4.78;;
79025;SDS011;71097;44.760;37.726;2023-07-20T06:25:41;7.55;;;4.30;;
79025;SDS011;71097;44.760;37.726;2023-07-20T06:28:31;7.13;;;4.25;;
79025;SDS011;71097;44.760;37.726;2023-07-20T06:29:51;8.13;;;4.90;;
79025;SDS011;71097;44.760;37.726;2023-07-20T06:32:04;5.93;;;5.03;;
79025;SDS011;71097;44.760;37.726;2023-07-20T06:35:00;7.72;;;4.32;;
79025;SDS011;71097;44.760;37.726;2023-07-20T06:36:36;8.07;;;4.75;;
79025;SDS011;71097;44.760;37.726;2023-07-20T06:38:05;7.25;;;4.80;;
79025;SDS011;71097;44.760;37.726;2023-07-20T06:39:07;8.75;;;3.88;;
79025;SDS011;71097;44.760;37.726;2023-07-20T06:41:00;8.70;;;5.03;;
79025;SDS011;71097;44.760;37.726;2023-07-20T06:42:24;6.95;;;4.35;;
79025;SDS011;71097;44.760;37.726;2023-07-20T06:43:31;9.15;;;5.47;;
79025;SDS011;71097;44.760;37.726;2023-07-20T06:44:39;6.68;;;4.38;;
79025;SDS011;71097;44.760;37.726;2023-07-20T06:45:41;8.45;;;4.70;;
79025;SDS011;71097;44.760;37.726;2023-07-20T06:46:42;10.95;;;5.05;;
79025;SDS011;71097;44.760;37.726;2023-07-20T06:47:44;8.38;;;4.95;;
79025;SDS011;71097;44.760;37.726;2023-07-20T06:48:46;8.95;;;4.35;;
79025;SDS011;71097;44.760;37.726;2023-07-20T06:49:47;6.68;;;4.45;;
79025;SDS011;71097;44.760;37.726;2023-07-20T06:50:49;12.10;;;4.90;;
79025;SDS011;71097;44.760;37.726;2023-07-20T06:51:50;7.55;;;4.38;;
79025;SDS011;71097;44.760;37.726;2023-07-20T06:52:52;8.27;;;4.43;;
79025;SDS011;71097;44.760;37.726;2023-07-20T06:53:53;6.85;;;4.30;;
79025;SDS011;71097;44.760;37.726;2023-07-20T06:54:55;7.95;;;4.88;;
79025;SDS011;71097;44.760;37.726;2023-07-20T06:55:57;6.43;;;3.90;;
79025;SDS011;71097;44.760;37.726;2023-07-20T06:56:58;7.57;;;3.95;;
79025;SDS011;71097;44.760;37.726;2023-07-20T06:58:00;7.47;;;5.03;;
79025;SDS011;71097;44.760;37.726;2023-07-20T06:59:02;8.40;;;4.40;;
79025;SDS011;71097;44.760;37.726;2023-07-20T07:00:03;7.68;;;4.80;;
79025;SDS011;71097;44.760;37.726;2023-07-20T07:01:07;7.35;;;4.20;;
79025;SDS011;71097;44.760;37.726;2023-07-20T07:02:09;7.78;;;4.40;;
79025;SDS011;71097;44.760;37.726;2023-07-20T07:03:11;9.65;;;4.18;;
79025;SDS011;71097;44.760;37.726;2023-07-20T07:04:12;6.82;;;3.88;;
79025;SDS011;71097;44.760;37.726;2023-07-20T07:05:14;6.80;;;4.40;;
79025;SDS011;71097;44.760;37.726;2023-07-20T07:06:16;7.32;;;3.80;;
79025;SDS011;71097;44.760;37.726;2023-07-20T07:07:18;6.97;;;3.90;;
79025;SDS011;71097;44.760;37.726;2023-07-20T07:08:19;9.07;;;4.50;;
79025;SDS011;71097;44.760;37.726;2023-07-20T07:09:21;10.30;;;4.80;;
79025;SDS011;71097;44.760;37.726;2023-07-20T07:10:22;8.27;;;4.05;;
79025;SDS011;71097;44.760;37.726;2023-07-20T07:11:24;9.48;;;4.05;;
79025;SDS011;71097;44.760;37.726;2023-07-20T07:12:25;6.30;;;4.28;;
79025;SDS011;71097;44.760;37.726;2023-07-20T07:13:27;9.32;;;4.07;;
79025;SDS011;71097;44.760;37.726;2023-07-20T07:14:29;8.00;;;4.22;;
79025;SDS011;71097;44.760;37.726;2023-07-20T07:15:30;6.90;;;4.53;;
79025;SDS011;71097;44.760;37.726;2023-07-20T07:16:32;11.95;;;4.45;;
79025;SDS011;71097;44.760;37.726;2023-07-20T07:17:34;5.80;;;3.80;;
79025;SDS011;71097;44.760;37.726;2023-07-20T07:18:36;8.77;;;4.57;;
79025;SDS011;71097;44.760;37.726;2023-07-20T07:19:37;7.97;;;4.28;;
79025;SDS011;71097;44.760;37.726;2023-07-20T07:20:39;7.38;;;4.25;;
79025;SDS011;71097;44.760;37.726;2023-07-20T07:21:40;6.82;;;3.63;;
79025;SDS011;71097;44.760;37.726;2023-07-20T07:22:42;7.63;;;3.50;;
79025;SDS011;71097;44.760;37.726;2023-07-20T07:23:45;7.75;;;3.50;;
79025;SDS011;71097;44.760;37.726;2023-07-20T07:24:47;9.35;;;3.97;;
79025;SDS011;71097;44.760;37.726;2023-07-20T07:25:48;7.18;;;4.05;;
79025;SDS011;71097;44.760;37.726;2023-07-20T07:26:50;10.07;;;3.67;;
79025;SDS011;71097;44.760;37.726;2023-07-20T07:27:52;7.07;;;3.40;;
79025;SDS011;71097;44.760;37.726;2023-07-20T07:28:55;9.48;;;4.00;;
79025;SDS011;71097;44.760;37.726;2023-07-20T07:29:56;7.65;;;3.90;;
79025;SDS011;71097;44.760;37.726;2023-07-20T07:30:58;7.78;;;3.90;;
79025;SDS011;71097;44.760;37.726;2023-07-20T07:31:59;6.85;;;3.92;;
79025;SDS011;71097;44.760;37.726;2023-07-20T07:33:02;7.65;;;3.78;;
79025;SDS011;71097;44.760;37.726;2023-07-20T07:34:04;5.82;;;3.70;;
79025;SDS011;71097;44.760;37.726;2023-07-20T07:35:05;7.80;;;4.43;;